Laguna de Pozuelos, Argentina
Current Conditions -  °F | °C
As of 5:00 PM on Tuesday 21 Oct 2014 (Local Time) from SLTJ Reporting Station
Broken Clouds Broken Clouds  
Wind Chill: 21°   Ceiling: 10000
Heat Index: 21°   Visibility: 6mi
Dew Point: 15°   Wind: 9mph
Humidity: 68%   Direction: 70°ENE
Pressure: 30.18"   Gusts: NA
Location:  22.37°S, 66.02°W
Report Text: SLTJ 212000Z 07008KT 9999 SCT030 FEW033CB BKN100 21/15 Q1022
Loading
Personal Weather Stations






























Interactive Weather Map
Tropical Storm Tracking
New forecast layout! Learn more

10-Day Weather Forecast

Advertisements
Track Severe Weather on mobile